createdAt,value
2023-02-26T00:04:18.298Z,0.82
2023-02-26T00:09:34.358Z,1.80
2023-02-26T00:14:50.907Z,0.80
2023-02-26T00:20:09.189Z,1.50
2023-02-26T00:25:25.141Z,1.10
2023-02-26T00:30:41.433Z,1.88
2023-02-26T00:36:16.025Z,0.73
2023-02-26T00:41:32.588Z,0.90
2023-02-26T00:47:14.496Z,1.90
2023-02-26T00:52:37.996Z,2.50
2023-02-26T00:57:53.692Z,1.75
2023-02-26T01:03:09.289Z,0.70
2023-02-26T01:08:38.412Z,2.55
2023-02-26T01:13:54.326Z,0.95
2023-02-26T01:19:34.794Z,0.80
2023-02-26T01:24:56.651Z,1.30
2023-02-26T01:30:13.064Z,1.38
2023-02-26T01:35:55.919Z,1.23
2023-02-26T01:41:30.354Z,0.88
2023-02-26T01:47:24.403Z,1.02
2023-02-26T01:52:49.214Z,1.42
2023-02-26T01:58:06.150Z,1.48
2023-02-26T02:03:23.161Z,0.80
2023-02-26T02:08:39.442Z,1.25
2023-02-26T02:13:58.382Z,0.80
2023-02-26T02:19:58.106Z,1.08
2023-02-26T02:25:32.492Z,1.23
2023-02-26T02:30:54.028Z,0.80
2023-02-26T02:36:27.736Z,1.13
2023-02-26T02:41:49.858Z,2.60
2023-02-26T02:47:10.134Z,1.10
2023-02-26T02:52:35.550Z,1.00
2023-02-26T02:58:13.929Z,3.63
2023-02-26T03:03:43.579Z,0.60
2023-02-26T03:09:01.400Z,0.65
2023-02-26T03:14:17.134Z,2.63
2023-02-26T03:20:05.748Z,1.05
2023-02-26T03:25:47.534Z,0.82
2023-02-26T03:37:07.902Z,2.85
2023-02-26T03:42:54.126Z,1.17
2023-02-26T03:48:13.927Z,0.95
2023-02-26T03:53:34.943Z,1.45
2023-02-26T04:04:33.449Z,0.73
2023-02-26T04:09:51.480Z,1.23
2023-02-26T04:15:08.230Z,0.85
2023-02-26T04:20:24.553Z,0.65
2023-02-26T04:25:40.344Z,0.90
2023-02-26T04:30:56.428Z,2.13
2023-02-26T04:36:12.612Z,1.27
2023-02-26T04:41:28.232Z,1.48
2023-02-26T04:46:44.496Z,0.60
2023-02-26T04:52:00.240Z,0.90
2023-02-26T04:57:16.176Z,1.38
2023-02-26T05:02:31.828Z,2.40
2023-02-26T05:07:47.583Z,0.63
2023-02-26T05:13:03.229Z,1.42
2023-02-26T05:18:18.576Z,1.27
2023-02-26T05:23:34.608Z,2.33
2023-02-26T05:28:50.451Z,1.27
2023-02-26T05:34:06.252Z,1.05
2023-02-26T05:39:22.160Z,0.80
2023-02-26T05:44:37.620Z,0.57
2023-02-26T05:49:53.884Z,0.80
2023-02-26T05:55:10.229Z,0.70
2023-02-26T06:00:26.737Z,0.88
2023-02-26T06:05:42.591Z,3.28
2023-02-26T06:10:58.557Z,0.80
2023-02-26T06:16:14.506Z,1.20
2023-02-26T06:21:30.736Z,2.85
2023-02-26T06:26:46.702Z,1.38
2023-02-26T06:32:02.732Z,6.45
2023-02-26T06:37:18.568Z,6.45
2023-02-26T06:42:34.527Z,4.65
2023-02-26T06:47:50.360Z,3.05
2023-02-26T06:53:06.682Z,1.90
2023-02-26T06:58:22.614Z,5.28
2023-02-26T07:03:38.436Z,3.38
2023-02-26T07:08:54.027Z,6.85
2023-02-26T07:14:09.765Z,6.10
2023-02-26T07:19:25.281Z,10.23
2023-02-26T07:24:42.608Z,10.30
2023-02-26T07:29:58.027Z,4.75
2023-02-26T07:35:13.569Z,6.72
2023-02-26T07:40:29.517Z,9.15
2023-02-26T07:45:45.246Z,7.45
2023-02-26T07:51:01.103Z,7.15
2023-02-26T07:56:16.931Z,8.10
2023-02-26T08:01:33.011Z,10.07
2023-02-26T08:06:49.008Z,7.72
2023-02-26T08:12:05.030Z,4.85
2023-02-26T08:17:20.905Z,3.75
2023-02-26T08:22:36.709Z,7.13
2023-02-26T08:27:52.885Z,3.75
2023-02-26T08:33:08.721Z,1.23
2023-02-26T08:38:24.065Z,4.57
2023-02-26T08:43:39.977Z,2.53
2023-02-26T08:48:55.941Z,6.60
2023-02-26T08:54:12.977Z,2.80
2023-02-26T08:59:28.296Z,5.60
2023-02-26T09:04:44.137Z,2.50
2023-02-26T09:10:00.186Z,1.75
2023-02-26T09:15:15.724Z,5.95
2023-02-26T09:20:31.416Z,2.63
2023-02-26T09:25:47.034Z,3.05
2023-02-26T09:31:03.084Z,2.60
2023-02-26T09:36:18.812Z,2.58
2023-02-26T09:41:40.092Z,1.70
2023-02-26T09:47:10.748Z,2.05
2023-02-26T09:52:47.715Z,1.65
2023-02-26T09:58:05.399Z,2.88
2023-02-26T10:03:35.882Z,1.67
2023-02-26T10:08:58.783Z,2.20
2023-02-26T10:14:30.661Z,1.50
2023-02-26T10:19:49.442Z,1.67
2023-02-26T10:25:20.078Z,1.60
2023-02-26T10:30:46.370Z,1.77
2023-02-26T10:36:19.607Z,2.78
2023-02-26T10:41:37.440Z,1.98
2023-02-26T10:47:21.668Z,1.13
2023-02-26T10:52:37.791Z,1.67
2023-02-26T10:58:05.606Z,2.60
2023-02-26T11:03:34.396Z,2.20
2023-02-26T11:08:54.344Z,1.45
2023-02-26T11:14:11.550Z,5.57
2023-02-26T11:19:31.580Z,3.17
2023-02-26T11:24:49.103Z,1.90
2023-02-26T11:30:18.765Z,2.08
2023-02-26T11:35:34.410Z,2.00
2023-02-26T11:40:56.299Z,1.95
2023-02-26T11:46:13.333Z,2.17
2023-02-26T11:51:29.999Z,4.65
2023-02-26T11:56:45.625Z,2.30
2023-02-26T12:02:12.815Z,1.77
2023-02-26T12:07:30.406Z,21.20
2023-02-26T12:12:51.897Z,4.13
2023-02-26T12:18:46.939Z,4.82
2023-02-26T12:24:23.448Z,1.60
2023-02-26T12:29:59.478Z,3.33
2023-02-26T12:35:21.266Z,4.82
2023-02-26T12:40:59.715Z,3.95
2023-02-26T12:46:36.854Z,1.95
2023-02-26T12:52:17.589Z,2.25
2023-02-26T12:58:05.730Z,2.78
2023-02-26T13:04:02.555Z,2.80
2023-02-26T13:09:51.383Z,2.95
2023-02-26T13:15:26.284Z,2.20
2023-02-26T13:20:56.008Z,2.45
2023-02-26T13:26:15.864Z,3.30
2023-02-26T13:31:42.348Z,3.58
2023-02-26T13:36:58.754Z,1.50
2023-02-26T13:42:34.104Z,2.22
2023-02-26T13:48:08.891Z,2.25
2023-02-26T13:53:24.761Z,3.92
2023-02-26T13:58:49.059Z,1.50
2023-02-26T14:04:20.225Z,2.78
2023-02-26T14:09:48.808Z,3.03
2023-02-26T14:15:13.486Z,3.75
2023-02-26T14:20:31.828Z,8.98
2023-02-26T14:25:53.453Z,3.92
2023-02-26T14:31:12.655Z,2.78
2023-02-26T14:36:46.954Z,2.53
2023-02-26T14:42:08.457Z,1.45
2023-02-26T14:47:25.751Z,1.48
2023-02-26T14:53:15.113Z,3.63
2023-02-26T14:58:51.441Z,3.58
2023-02-26T15:04:30.487Z,3.83
2023-02-26T15:09:58.432Z,6.65
2023-02-26T15:15:34.114Z,4.88
2023-02-26T15:21:24.227Z,4.43
2023-02-26T15:26:49.807Z,3.38
2023-02-26T15:32:28.223Z,3.78
2023-02-26T15:37:48.948Z,2.70
2023-02-26T15:43:08.142Z,6.22
2023-02-26T15:48:34.387Z,3.10
2023-02-26T15:53:53.707Z,3.15
2023-02-26T15:59:17.822Z,2.47
2023-02-26T16:04:37.203Z,2.72
2023-02-26T16:09:55.397Z,2.72
2023-02-26T16:15:19.203Z,4.65
2023-02-26T16:20:45.238Z,4.13
2023-02-26T16:26:05.564Z,2.72
2023-02-26T16:31:25.822Z,3.90
2023-02-26T16:36:42.588Z,4.70
2023-02-26T16:42:16.559Z,4.72
2023-02-26T16:47:32.690Z,5.47
2023-02-26T16:53:04.208Z,16.67
2023-02-26T16:58:23.267Z,19.75
2023-02-26T17:03:39.849Z,8.52
2023-02-26T17:08:59.648Z,7.57
2023-02-26T17:14:25.871Z,6.82
2023-02-26T17:19:41.602Z,14.13
2023-02-26T17:24:57.784Z,20.27
2023-02-26T17:30:18.361Z,20.52
2023-02-26T17:35:34.704Z,12.48
2023-02-26T17:40:54.663Z,13.45
2023-02-26T17:46:12.551Z,12.85
2023-02-26T17:51:28.745Z,8.18
2023-02-26T17:56:45.268Z,6.80
2023-02-26T18:02:01.289Z,11.75
2023-02-26T18:07:17.926Z,13.38
2023-02-26T18:12:33.847Z,29.92
2023-02-26T18:17:49.672Z,27.67
2023-02-26T18:23:07.171Z,18.20
2023-02-26T18:28:26.521Z,19.45
2023-02-26T18:33:44.648Z,20.95
2023-02-26T18:39:07.442Z,17.27
2023-02-26T18:44:23.194Z,17.70
2023-02-26T18:49:38.581Z,26.27
2023-02-26T18:54:54.599Z,23.15
2023-02-26T19:00:14.167Z,38.10
2023-02-26T19:05:29.728Z,19.38
2023-02-26T19:10:46.963Z,12.93
2023-02-26T19:16:03.316Z,15.15
2023-02-26T19:21:19.684Z,25.45
2023-02-26T19:26:36.640Z,8.73
2023-02-26T19:31:52.551Z,5.80
2023-02-26T19:37:10.764Z,8.88
2023-02-26T19:42:28.778Z,11.32
2023-02-26T19:47:44.500Z,12.43
2023-02-26T19:53:00.801Z,11.77
2023-02-26T19:58:16.653Z,13.70
2023-02-26T20:03:32.982Z,5.72
2023-02-26T20:08:48.820Z,7.78
2023-02-26T20:14:05.084Z,3.63
2023-02-26T20:19:21.212Z,3.10
2023-02-26T20:24:37.562Z,3.22
2023-02-26T20:29:53.473Z,3.22
2023-02-26T20:35:09.780Z,6.13
2023-02-26T20:40:25.467Z,5.25
2023-02-26T20:45:42.019Z,4.32
2023-02-26T20:51:06.510Z,3.38
2023-02-26T20:56:22.195Z,6.13
2023-02-26T21:01:38.125Z,3.63
2023-02-26T21:06:54.129Z,6.40
2023-02-26T21:12:10.708Z,4.03
2023-02-26T21:17:27.997Z,7.10
2023-02-26T21:22:45.064Z,2.65
2023-02-26T21:28:00.650Z,2.50
2023-02-26T21:33:16.685Z,3.47
2023-02-26T21:38:32.152Z,4.50
2023-02-26T21:43:48.105Z,5.03
2023-02-26T21:49:03.916Z,4.18
2023-02-26T21:54:20.616Z,3.20
2023-02-26T21:59:36.388Z,5.28
2023-02-26T22:04:52.330Z,2.70
2023-02-26T22:10:10.400Z,2.88
2023-02-26T22:15:26.508Z,1.98
2023-02-26T22:20:42.632Z,2.45
2023-02-26T22:25:58.837Z,3.33
2023-02-26T22:31:14.560Z,2.25
2023-02-26T22:36:31.600Z,2.72
2023-02-26T22:41:48.160Z,3.20
2023-02-26T22:47:03.836Z,2.28
2023-02-26T22:52:19.650Z,2.42
2023-02-26T22:57:35.542Z,2.20
2023-02-26T23:02:51.615Z,1.88
2023-02-26T23:08:07.536Z,2.22
2023-02-26T23:13:23.894Z,2.42
2023-02-26T23:18:39.924Z,3.97
2023-02-26T23:23:55.702Z,3.45
2023-02-26T23:29:11.900Z,3.97
2023-02-26T23:34:27.847Z,3.55
2023-02-26T23:39:43.657Z,2.42
2023-02-26T23:45:00.266Z,2.08
2023-02-26T23:50:16.033Z,3.38
2023-02-26T23:55:32.095Z,3.95
